sensor_id;sensor_type;location;lat;lon;timestamp;temperature;humidity
19050;DHT22;9657;45.940;12.840;2023-04-16T00:00:28;15.30;65.00
19050;DHT22;9657;45.940;12.840;2023-04-16T00:02:55;15.30;65.10
19050;DHT22;9657;45.940;12.840;2023-04-16T00:05:23;15.30;65.00
19050;DHT22;9657;45.940;12.840;2023-04-16T00:07:50;15.30;65.00
19050;DHT22;9657;45.940;12.840;2023-04-16T00:10:18;15.30;65.00
19050;DHT22;9657;45.940;12.840;2023-04-16T00:12:45;15.30;65.00
19050;DHT22;9657;45.940;12.840;2023-04-16T00:15:12;15.20;65.00
19050;DHT22;9657;45.940;12.840;2023-04-16T00:17:39;15.30;65.10
19050;DHT22;9657;45.940;12.840;2023-04-16T00:20:07;15.30;65.10
19050;DHT22;9657;45.940;12.840;2023-04-16T00:22:36;15.30;65.00
19050;DHT22;9657;45.940;12.840;2023-04-16T00:25:03;15.30;65.10
19050;DHT22;9657;45.940;12.840;2023-04-16T00:27:31;15.30;65.00
19050;DHT22;9657;45.940;12.840;2023-04-16T00:29:58;15.30;65.00
19050;DHT22;9657;45.940;12.840;2023-04-16T00:32:25;15.30;65.00
19050;DHT22;9657;45.940;12.840;2023-04-16T00:34:52;15.30;65.00
19050;DHT22;9657;45.940;12.840;2023-04-16T00:37:19;15.30;65.10
19050;DHT22;9657;45.940;12.840;2023-04-16T00:39:47;15.20;65.00
19050;DHT22;9657;45.940;12.840;2023-04-16T00:42:14;15.30;65.10
19050;DHT22;9657;45.940;12.840;2023-04-16T00:44:41;15.20;65.00
19050;DHT22;9657;45.940;12.840;2023-04-16T00:47:08;15.30;65.00
19050;DHT22;9657;45.940;12.840;2023-04-16T00:49:36;15.20;65.00
19050;DHT22;9657;45.940;12.840;2023-04-16T00:52:03;15.30;65.10
19050;DHT22;9657;45.940;12.840;2023-04-16T00:54:30;15.20;65.00
19050;DHT22;9657;45.940;12.840;2023-04-16T00:56:59;15.20;65.00
19050;DHT22;9657;45.940;12.840;2023-04-16T00:59:27;15.20;65.00
19050;DHT22;9657;45.940;12.840;2023-04-16T01:04:30;15.20;65.00
19050;DHT22;9657;45.940;12.840;2023-04-16T01:06:58;15.20;65.00
19050;DHT22;9657;45.940;12.840;2023-04-16T01:09:25;15.20;65.00
19050;DHT22;9657;45.940;12.840;2023-04-16T01:11:52;15.20;65.00
19050;DHT22;9657;45.940;12.840;2023-04-16T01:14:21;15.20;64.90
19050;DHT22;9657;45.940;12.840;2023-04-16T01:16:48;15.20;65.00
19050;DHT22;9657;45.940;12.840;2023-04-16T01:19:15;15.20;65.00
19050;DHT22;9657;45.940;12.840;2023-04-16T01:21:43;15.20;65.00
19050;DHT22;9657;45.940;12.840;2023-04-16T01:24:11;15.20;65.00
19050;DHT22;9657;45.940;12.840;2023-04-16T01:26:38;15.20;65.00
19050;DHT22;9657;45.940;12.840;2023-04-16T01:29:05;15.20;64.90
19050;DHT22;9657;45.940;12.840;2023-04-16T01:31:32;15.20;65.00
19050;DHT22;9657;45.940;12.840;2023-04-16T01:33:59;15.20;65.00
19050;DHT22;9657;45.940;12.840;2023-04-16T01:36:26;15.20;65.00
19050;DHT22;9657;45.940;12.840;2023-04-16T01:38:54;15.20;65.00
19050;DHT22;9657;45.940;12.840;2023-04-16T01:41:21;15.20;64.90
19050;DHT22;9657;45.940;12.840;2023-04-16T01:43:48;15.20;64.90
19050;DHT22;9657;45.940;12.840;2023-04-16T01:46:19;15.20;64.90
19050;DHT22;9657;45.940;12.840;2023-04-16T01:48:47;15.20;65.00
19050;DHT22;9657;45.940;12.840;2023-04-16T01:51:14;15.20;64.90
19050;DHT22;9657;45.940;12.840;2023-04-16T01:53:41;15.20;64.90
19050;DHT22;9657;45.940;12.840;2023-04-16T01:56:09;15.20;64.90
19050;DHT22;9657;45.940;12.840;2023-04-16T01:58:36;15.10;64.80
19050;DHT22;9657;45.940;12.840;2023-04-16T02:01:04;15.20;64.90
19050;DHT22;9657;45.940;12.840;2023-04-16T02:03:31;15.20;64.90
19050;DHT22;9657;45.940;12.840;2023-04-16T02:05:58;15.10;64.80
19050;DHT22;9657;45.940;12.840;2023-04-16T02:08:25;15.20;64.80
19050;DHT22;9657;45.940;12.840;2023-04-16T02:10:53;15.20;65.60
19050;DHT22;9657;45.940;12.840;2023-04-16T02:13:21;15.20;64.80
19050;DHT22;9657;45.940;12.840;2023-04-16T02:15:51;15.20;64.80
19050;DHT22;9657;45.940;12.840;2023-04-16T02:18:18;15.20;64.80
19050;DHT22;9657;45.940;12.840;2023-04-16T02:20:46;15.20;64.80
19050;DHT22;9657;45.940;12.840;2023-04-16T02:23:14;15.20;64.80
19050;DHT22;9657;45.940;12.840;2023-04-16T02:25:42;15.10;64.70
19050;DHT22;9657;45.940;12.840;2023-04-16T02:28:10;15.10;64.70
19050;DHT22;9657;45.940;12.840;2023-04-16T02:30:40;15.20;64.80
19050;DHT22;9657;45.940;12.840;2023-04-16T02:33:08;15.10;64.70
19050;DHT22;9657;45.940;12.840;2023-04-16T02:35:36;15.10;64.70
19050;DHT22;9657;45.940;12.840;2023-04-16T02:38:04;15.10;64.70
19050;DHT22;9657;45.940;12.840;2023-04-16T02:40:31;15.10;64.80
19050;DHT22;9657;45.940;12.840;2023-04-16T02:42:59;15.10;64.70
19050;DHT22;9657;45.940;12.840;2023-04-16T02:45:26;15.10;64.70
19050;DHT22;9657;45.940;12.840;2023-04-16T02:47:55;15.10;64.70
19050;DHT22;9657;45.940;12.840;2023-04-16T02:50:22;15.10;64.70
19050;DHT22;9657;45.940;12.840;2023-04-16T02:52:49;15.10;64.70
19050;DHT22;9657;45.940;12.840;2023-04-16T02:55:16;15.10;64.70
19050;DHT22;9657;45.940;12.840;2023-04-16T02:57:43;15.10;64.70
19050;DHT22;9657;45.940;12.840;2023-04-16T03:00:11;15.10;64.60
19050;DHT22;9657;45.940;12.840;2023-04-16T03:02:38;15.10;64.60
19050;DHT22;9657;45.940;12.840;2023-04-16T03:05:08;15.10;64.70
19050;DHT22;9657;45.940;12.840;2023-04-16T03:07:35;15.10;65.50
19050;DHT22;9657;45.940;12.840;2023-04-16T03:10:04;15.10;64.60
19050;DHT22;9657;45.940;12.840;2023-04-16T03:12:31;15.10;64.70
19050;DHT22;9657;45.940;12.840;2023-04-16T03:14:58;15.10;64.60
19050;DHT22;9657;45.940;12.840;2023-04-16T03:17:26;15.10;64.70
19050;DHT22;9657;45.940;12.840;2023-04-16T03:19:53;15.10;64.60
19050;DHT22;9657;45.940;12.840;2023-04-16T03:22:21;15.10;64.70
19050;DHT22;9657;45.940;12.840;2023-04-16T03:24:48;15.10;64.60
19050;DHT22;9657;45.940;12.840;2023-04-16T03:27:15;15.10;64.60
19050;DHT22;9657;45.940;12.840;2023-04-16T03:29:42;15.10;64.60
19050;DHT22;9657;45.940;12.840;2023-04-16T03:32:09;15.00;64.60
19050;DHT22;9657;45.940;12.840;2023-04-16T03:34:37;15.00;64.60
19050;DHT22;9657;45.940;12.840;2023-04-16T03:37:04;15.10;64.60
19050;DHT22;9657;45.940;12.840;2023-04-16T03:39:33;15.10;64.60
19050;DHT22;9657;45.940;12.840;2023-04-16T03:42:00;15.00;64.60
19050;DHT22;9657;45.940;12.840;2023-04-16T03:44:28;15.10;64.60
19050;DHT22;9657;45.940;12.840;2023-04-16T03:46:55;15.10;64.60
19050;DHT22;9657;45.940;12.840;2023-04-16T03:49:22;15.10;64.60
19050;DHT22;9657;45.940;12.840;2023-04-16T03:51:49;15.00;64.50
19050;DHT22;9657;45.940;12.840;2023-04-16T03:54:16;15.10;64.50
19050;DHT22;9657;45.940;12.840;2023-04-16T03:56:45;15.10;64.50
19050;DHT22;9657;45.940;12.840;2023-04-16T03:59:12;15.10;64.60
19050;DHT22;9657;45.940;12.840;2023-04-16T04:01:39;15.10;64.60
19050;DHT22;9657;45.940;12.840;2023-04-16T04:04:06;15.00;64.50
19050;DHT22;9657;45.940;12.840;2023-04-16T04:06:34;15.00;64.50
19050;DHT22;9657;45.940;12.840;2023-04-16T04:09:01;15.00;64.40
19050;DHT22;9657;45.940;12.840;2023-04-16T04:11:28;15.00;65.20
19050;DHT22;9657;45.940;12.840;2023-04-16T04:13:57;15.00;64.50
19050;DHT22;9657;45.940;12.840;2023-04-16T04:16:24;15.00;64.40
19050;DHT22;9657;45.940;12.840;2023-04-16T04:18:51;15.00;64.40
19050;DHT22;9657;45.940;12.840;2023-04-16T04:21:18;15.00;64.50
19050;DHT22;9657;45.940;12.840;2023-04-16T04:23:45;15.00;64.40
19050;DHT22;9657;45.940;12.840;2023-04-16T04:26:12;15.00;64.40
19050;DHT22;9657;45.940;12.840;2023-04-16T04:28:39;15.00;64.40
19050;DHT22;9657;45.940;12.840;2023-04-16T04:31:07;15.00;64.40
19050;DHT22;9657;45.940;12.840;2023-04-16T04:33:34;15.00;64.40
19050;DHT22;9657;45.940;12.840;2023-04-16T04:36:01;15.00;64.30
19050;DHT22;9657;45.940;12.840;2023-04-16T04:38:28;15.00;64.40
19050;DHT22;9657;45.940;12.840;2023-04-16T04:40:56;15.00;64.50
19050;DHT22;9657;45.940;12.840;2023-04-16T04:43:23;15.00;64.30
19050;DHT22;9657;45.940;12.840;2023-04-16T04:45:50;15.00;64.30
19050;DHT22;9657;45.940;12.840;2023-04-16T04:48:18;15.00;64.30
19050;DHT22;9657;45.940;12.840;2023-04-16T04:50:50;15.00;64.40
19050;DHT22;9657;45.940;12.840;2023-04-16T04:53:18;15.00;64.30
19050;DHT22;9657;45.940;12.840;2023-04-16T04:55:45;15.00;64.30
19050;DHT22;9657;45.940;12.840;2023-04-16T04:58:12;15.00;64.30
19050;DHT22;9657;45.940;12.840;2023-04-16T05:00:39;15.00;64.30
19050;DHT22;9657;45.940;12.840;2023-04-16T05:03:09;15.00;64.30
19050;DHT22;9657;45.940;12.840;2023-04-16T05:05:38;15.00;64.30
19050;DHT22;9657;45.940;12.840;2023-04-16T05:08:05;15.00;64.30
19050;DHT22;9657;45.940;12.840;2023-04-16T05:10:32;15.00;64.30
19050;DHT22;9657;45.940;12.840;2023-04-16T05:13:00;15.00;64.30
19050;DHT22;9657;45.940;12.840;2023-04-16T05:15:27;15.00;64.20
19050;DHT22;9657;45.940;12.840;2023-04-16T05:17:54;15.00;64.30
19050;DHT22;9657;45.940;12.840;2023-04-16T05:20:21;14.90;64.10
19050;DHT22;9657;45.940;12.840;2023-04-16T05:22:50;14.90;64.10
19050;DHT22;9657;45.940;12.840;2023-04-16T05:25:17;14.90;64.10
19050;DHT22;9657;45.940;12.840;2023-04-16T05:27:44;14.90;64.10
19050;DHT22;9657;45.940;12.840;2023-04-16T05:30:11;14.90;64.10
19050;DHT22;9657;45.940;12.840;2023-04-16T05:32:39;14.90;64.20
19050;DHT22;9657;45.940;12.840;2023-04-16T05:35:06;14.90;64.10
19050;DHT22;9657;45.940;12.840;2023-04-16T05:37:34;14.90;64.10
19050;DHT22;9657;45.940;12.840;2023-04-16T05:40:02;14.90;64.10
19050;DHT22;9657;45.940;12.840;2023-04-16T05:42:29;14.90;64.10
19050;DHT22;9657;45.940;12.840;2023-04-16T05:44:56;14.90;64.10
19050;DHT22;9657;45.940;12.840;2023-04-16T05:47:24;14.90;64.10
19050;DHT22;9657;45.940;12.840;2023-04-16T05:49:51;14.90;64.20
19050;DHT22;9657;45.940;12.840;2023-04-16T05:52:18;14.90;64.10
19050;DHT22;9657;45.940;12.840;2023-04-16T05:54:45;14.90;64.10
19050;DHT22;9657;45.940;12.840;2023-04-16T05:57:13;14.90;64.10
19050;DHT22;9657;45.940;12.840;2023-04-16T05:59:40;14.90;64.10
19050;DHT22;9657;45.940;12.840;2023-04-16T06:02:07;14.90;64.10
19050;DHT22;9657;45.940;12.840;2023-04-16T06:04:35;14.90;64.10
19050;DHT22;9657;45.940;12.840;2023-04-16T06:07:02;14.90;64.00
19050;DHT22;9657;45.940;12.840;2023-04-16T06:09:29;14.90;64.00
19050;DHT22;9657;45.940;12.840;2023-04-16T06:11:56;14.90;64.10
19050;DHT22;9657;45.940;12.840;2023-04-16T06:14:25;14.90;64.10
19050;DHT22;9657;45.940;12.840;2023-04-16T06:16:52;14.90;64.00
19050;DHT22;9657;45.940;12.840;2023-04-16T06:19:19;14.90;64.50
19050;DHT22;9657;45.940;12.840;2023-04-16T06:21:46;14.90;64.00
19050;DHT22;9657;45.940;12.840;2023-04-16T06:24:13;14.90;64.00
19050;DHT22;9657;45.940;12.840;2023-04-16T06:26:40;14.90;64.00
19050;DHT22;9657;45.940;12.840;2023-04-16T06:29:07;14.90;64.00
19050;DHT22;9657;45.940;12.840;2023-04-16T06:31:35;14.90;64.00
19050;DHT22;9657;45.940;12.840;2023-04-16T06:34:02;14.90;64.00
19050;DHT22;9657;45.940;12.840;2023-04-16T06:36:29;14.90;64.00
19050;DHT22;9657;45.940;12.840;2023-04-16T06:38:56;14.90;64.00
19050;DHT22;9657;45.940;12.840;2023-04-16T06:41:23;14.90;63.90
19050;DHT22;9657;45.940;12.840;2023-04-16T06:43:51;14.90;63.90
19050;DHT22;9657;45.940;12.840;2023-04-16T06:46:18;14.90;63.90
19050;DHT22;9657;45.940;12.840;2023-04-16T06:48:46;14.90;63.90
19050;DHT22;9657;45.940;12.840;2023-04-16T06:51:13;14.90;63.90
19050;DHT22;9657;45.940;12.840;2023-04-16T06:53:40;14.90;63.80
19050;DHT22;9657;45.940;12.840;2023-04-16T06:56:08;14.90;63.80
19050;DHT22;9657;45.940;12.840;2023-04-16T06:58:35;14.90;63.80
19050;DHT22;9657;45.940;12.840;2023-04-16T07:01:02;14.90;63.80
19050;DHT22;9657;45.940;12.840;2023-04-16T07:03:30;14.90;63.80
19050;DHT22;9657;45.940;12.840;2023-04-16T07:05:58;14.90;63.70
19050;DHT22;9657;45.940;12.840;2023-04-16T07:08:25;14.90;63.60
19050;DHT22;9657;45.940;12.840;2023-04-16T07:10:53;14.90;63.60
19050;DHT22;9657;45.940;12.840;2023-04-16T07:13:20;14.90;63.60
19050;DHT22;9657;45.940;12.840;2023-04-16T07:15:47;14.90;63.60
19050;DHT22;9657;45.940;12.840;2023-04-16T07:18:14;14.90;63.60
19050;DHT22;9657;45.940;12.840;2023-04-16T07:20:41;14.90;63.60
19050;DHT22;9657;45.940;12.840;2023-04-16T07:23:10;14.90;63.60
19050;DHT22;9657;45.940;12.840;2023-04-16T07:25:37;14.90;63.60
19050;DHT22;9657;45.940;12.840;2023-04-16T07:28:04;14.90;63.50
19050;DHT22;9657;45.940;12.840;2023-04-16T07:30:31;15.00;63.60
19050;DHT22;9657;45.940;12.840;2023-04-16T07:33:01;15.00;63.60
19050;DHT22;9657;45.940;12.840;2023-04-16T07:35:28;14.90;63.50
19050;DHT22;9657;45.940;12.840;2023-04-16T07:37:55;15.00;63.60
19050;DHT22;9657;45.940;12.840;2023-04-16T07:40:24;15.00;63.60
19050;DHT22;9657;45.940;12.840;2023-04-16T07:42:51;15.00;63.60
19050;DHT22;9657;45.940;12.840;2023-04-16T07:45:18;15.00;63.60
19050;DHT22;9657;45.940;12.840;2023-04-16T07:47:45;14.90;63.40
19050;DHT22;9657;45.940;12.840;2023-04-16T07:50:12;15.00;63.50
19050;DHT22;9657;45.940;12.840;2023-04-16T07:52:41;15.00;63.50
19050;DHT22;9657;45.940;12.840;2023-04-16T07:55:09;15.00;63.50
19050;DHT22;9657;45.940;12.840;2023-04-16T07:57:38;15.00;63.50
19050;DHT22;9657;45.940;12.840;2023-04-16T08:00:07;15.00;63.40
19050;DHT22;9657;45.940;12.840;2023-04-16T08:02:34;15.00;63.40
19050;DHT22;9657;45.940;12.840;2023-04-16T08:05:01;15.00;63.40
19050;DHT22;9657;45.940;12.840;2023-04-16T08:07:29;15.00;63.40
19050;DHT22;9657;45.940;12.840;2023-04-16T08:09:56;15.00;63.30
19050;DHT22;9657;45.940;12.840;2023-04-16T08:12:23;15.00;63.30
19050;DHT22;9657;45.940;12.840;2023-04-16T08:14:51;15.00;63.30
19050;DHT22;9657;45.940;12.840;2023-04-16T08:17:18;15.00;63.30
19050;DHT22;9657;45.940;12.840;2023-04-16T08:19:45;15.00;63.30
19050;DHT22;9657;45.940;12.840;2023-04-16T08:22:13;15.00;63.20
19050;DHT22;9657;45.940;12.840;2023-04-16T08:24:40;15.00;63.20
19050;DHT22;9657;45.940;12.840;2023-04-16T08:27:07;15.00;63.20
19050;DHT22;9657;45.940;12.840;2023-04-16T08:29:35;15.00;63.20
19050;DHT22;9657;45.940;12.840;2023-04-16T08:32:03;15.00;64.00
19050;DHT22;9657;45.940;12.840;2023-04-16T08:34:31;15.00;63.10
19050;DHT22;9657;45.940;12.840;2023-04-16T08:36:58;15.10;63.20
19050;DHT22;9657;45.940;12.840;2023-04-16T08:39:25;15.10;63.10
19050;DHT22;9657;45.940;12.840;2023-04-16T08:41:53;15.10;63.10
19050;DHT22;9657;45.940;12.840;2023-04-16T08:44:24;15.00;63.10
19050;DHT22;9657;45.940;12.840;2023-04-16T08:46:52;15.00;63.10
19050;DHT22;9657;45.940;12.840;2023-04-16T08:49:24;15.10;63.10
19050;DHT22;9657;45.940;12.840;2023-04-16T08:51:52;15.10;63.90
19050;DHT22;9657;45.940;12.840;2023-04-16T08:54:30;15.10;63.10
19050;DHT22;9657;45.940;12.840;2023-04-16T08:56:58;15.10;63.00
19050;DHT22;9657;45.940;12.840;2023-04-16T08:59:26;15.10;63.00
19050;DHT22;9657;45.940;12.840;2023-04-16T09:01:56;15.10;63.00
19050;DHT22;9657;45.940;12.840;2023-04-16T09:04:26;15.10;63.00
19050;DHT22;9657;45.940;12.840;2023-04-16T09:06:55;15.10;63.00
19050;DHT22;9657;45.940;12.840;2023-04-16T09:09:22;15.20;63.10
19050;DHT22;9657;45.940;12.840;2023-04-16T09:11:50;15.10;63.10
19050;DHT22;9657;45.940;12.840;2023-04-16T09:14:18;15.20;63.10
19050;DHT22;9657;45.940;12.840;2023-04-16T09:16:47;15.20;63.10
19050;DHT22;9657;45.940;12.840;2023-04-16T09:19:14;15.20;63.10
19050;DHT22;9657;45.940;12.840;2023-04-16T09:21:45;15.20;63.10
19050;DHT22;9657;45.940;12.840;2023-04-16T09:24:13;15.30;63.10
19050;DHT22;9657;45.940;12.840;2023-04-16T09:26:40;15.30;63.00
19050;DHT22;9657;45.940;12.840;2023-04-16T09:29:09;15.40;63.00
19050;DHT22;9657;45.940;12.840;2023-04-16T09:31:36;15.40;63.00
19050;DHT22;9657;45.940;12.840;2023-04-16T09:34:04;15.40;62.90
19050;DHT22;9657;45.940;12.840;2023-04-16T09:36:32;15.40;62.80
19050;DHT22;9657;45.940;12.840;2023-04-16T09:39:02;15.50;62.80
19050;DHT22;9657;45.940;12.840;2023-04-16T09:41:30;15.50;62.70
19050;DHT22;9657;45.940;12.840;2023-04-16T09:43:58;15.50;62.60
19050;DHT22;9657;45.940;12.840;2023-04-16T09:46:29;15.50;62.60
19050;DHT22;9657;45.940;12.840;2023-04-16T09:48:57;15.60;62.60
19050;DHT22;9657;45.940;12.840;2023-04-16T09:51:24;15.60;62.50
19050;DHT22;9657;45.940;12.840;2023-04-16T09:53:52;15.70;62.50
19050;DHT22;9657;45.940;12.840;2023-04-16T09:56:24;15.70;62.40
19050;DHT22;9657;45.940;12.840;2023-04-16T09:58:55;15.80;62.30
19050;DHT22;9657;45.940;12.840;2023-04-16T10:01:23;15.80;62.20
19050;DHT22;9657;45.940;12.840;2023-04-16T10:03:53;15.90;62.00
19050;DHT22;9657;45.940;12.840;2023-04-16T10:06:22;15.90;61.80
19050;DHT22;9657;45.940;12.840;2023-04-16T10:08:51;16.00;61.40
19050;DHT22;9657;45.940;12.840;2023-04-16T10:11:21;16.00;60.80
19050;DHT22;9657;45.940;12.840;2023-04-16T10:13:50;16.10;60.60
19050;DHT22;9657;45.940;12.840;2023-04-16T10:16:17;16.10;60.30
19050;DHT22;9657;45.940;12.840;2023-04-16T10:18:45;16.10;60.00
19050;DHT22;9657;45.940;12.840;2023-04-16T10:21:12;16.20;59.90
19050;DHT22;9657;45.940;12.840;2023-04-16T10:23:41;16.20;59.80
19050;DHT22;9657;45.940;12.840;2023-04-16T10:26:09;16.20;59.70
19050;DHT22;9657;45.940;12.840;2023-04-16T10:28:36;16.20;59.60
19050;DHT22;9657;45.940;12.840;2023-04-16T10:31:07;16.20;60.20
19050;DHT22;9657;45.940;12.840;2023-04-16T10:33:35;16.30;59.60
19050;DHT22;9657;45.940;12.840;2023-04-16T10:36:10;16.30;59.50
19050;DHT22;9657;45.940;12.840;2023-04-16T10:38:38;16.30;59.50
19050;DHT22;9657;45.940;12.840;2023-04-16T10:41:07;16.30;59.50
19050;DHT22;9657;45.940;12.840;2023-04-16T10:43:39;16.30;59.50
19050;DHT22;9657;45.940;12.840;2023-04-16T10:46:22;16.30;59.50
19050;DHT22;9657;45.940;12.840;2023-04-16T10:48:51;16.30;59.60
19050;DHT22;9657;45.940;12.840;2023-04-16T10:51:30;16.30;59.60
19050;DHT22;9657;45.940;12.840;2023-04-16T10:54:03;16.20;59.60
19050;DHT22;9657;45.940;12.840;2023-04-16T10:56:32;16.20;59.60
19050;DHT22;9657;45.940;12.840;2023-04-16T10:58:59;16.30;59.70
19050;DHT22;9657;45.940;12.840;2023-04-16T11:01:30;16.20;59.60
19050;DHT22;9657;45.940;12.840;2023-04-16T11:03:59;16.20;59.70
19050;DHT22;9657;45.940;12.840;2023-04-16T11:06:28;16.20;59.70
19050;DHT22;9657;45.940;12.840;2023-04-16T11:08:56;16.20;59.70
19050;DHT22;9657;45.940;12.840;2023-04-16T11:11:23;16.20;59.70
19050;DHT22;9657;45.940;12.840;2023-04-16T11:13:54;16.20;59.80
19050;DHT22;9657;45.940;12.840;2023-04-16T11:16:23;16.20;59.80
19050;DHT22;9657;45.940;12.840;2023-04-16T11:18:53;16.20;59.80
19050;DHT22;9657;45.940;12.840;2023-04-16T11:21:21;16.20;59.90
19050;DHT22;9657;45.940;12.840;2023-04-16T11:23:50;16.10;59.90
19050;DHT22;9657;45.940;12.840;2023-04-16T11:26:25;16.10;59.90
19050;DHT22;9657;45.940;12.840;2023-04-16T11:28:53;16.10;59.90
19050;DHT22;9657;45.940;12.840;2023-04-16T11:31:21;16.10;59.90
19050;DHT22;9657;45.940;12.840;2023-04-16T11:33:49;16.10;60.00
19050;DHT22;9657;45.940;12.840;2023-04-16T11:36:17;16.10;60.00
19050;DHT22;9657;45.940;12.840;2023-04-16T11:38:45;16.10;60.00
19050;DHT22;9657;45.940;12.840;2023-04-16T11:41:18;16.10;60.10
19050;DHT22;9657;45.940;12.840;2023-04-16T11:43:46;16.10;60.10
19050;DHT22;9657;45.940;12.840;2023-04-16T11:46:13;16.10;60.10
19050;DHT22;9657;45.940;12.840;2023-04-16T11:48:47;16.10;60.10
19050;DHT22;9657;45.940;12.840;2023-04-16T11:51:16;16.10;60.10
19050;DHT22;9657;45.940;12.840;2023-04-16T11:53:51;16.10;60.10
19050;DHT22;9657;45.940;12.840;2023-04-16T11:56:25;16.10;60.10
19050;DHT22;9657;45.940;12.840;2023-04-16T11:59:11;16.10;60.10
19050;DHT22;9657;45.940;12.840;2023-04-16T12:01:39;16.10;60.20
19050;DHT22;9657;45.940;12.840;2023-04-16T12:04:07;16.10;60.20
19050;DHT22;9657;45.940;12.840;2023-04-16T12:06:35;16.10;60.30
19050;DHT22;9657;45.940;12.840;2023-04-16T12:09:23;16.10;60.40
19050;DHT22;9657;45.940;12.840;2023-04-16T12:11:50;16.10;60.40
19050;DHT22;9657;45.940;12.840;2023-04-16T12:14:18;16.10;60.40
19050;DHT22;9657;45.940;12.840;2023-04-16T12:16:45;16.10;60.50
19050;DHT22;9657;45.940;12.840;2023-04-16T12:19:12;16.10;60.40
19050;DHT22;9657;45.940;12.840;2023-04-16T12:21:42;16.10;60.50
19050;DHT22;9657;45.940;12.840;2023-04-16T12:24:11;16.10;60.50
19050;DHT22;9657;45.940;12.840;2023-04-16T12:26:44;16.10;60.50
19050;DHT22;9657;45.940;12.840;2023-04-16T12:29:19;16.10;60.60
19050;DHT22;9657;45.940;12.840;2023-04-16T12:31:47;16.10;60.60
19050;DHT22;9657;45.940;12.840;2023-04-16T12:34:15;16.10;60.60
19050;DHT22;9657;45.940;12.840;2023-04-16T12:36:44;16.10;60.80
19050;DHT22;9657;45.940;12.840;2023-04-16T12:39:13;16.10;60.80
19050;DHT22;9657;45.940;12.840;2023-04-16T12:41:42;16.10;60.80
19050;DHT22;9657;45.940;12.840;2023-04-16T12:44:10;16.10;60.80
19050;DHT22;9657;45.940;12.840;2023-04-16T12:46:39;16.10;60.80
19050;DHT22;9657;45.940;12.840;2023-04-16T12:49:06;16.10;60.80
19050;DHT22;9657;45.940;12.840;2023-04-16T12:51:34;16.10;60.80
19050;DHT22;9657;45.940;12.840;2023-04-16T12:54:04;16.10;60.80
19050;DHT22;9657;45.940;12.840;2023-04-16T12:56:32;16.10;60.80
19050;DHT22;9657;45.940;12.840;2023-04-16T12:58:59;16.10;60.80
19050;DHT22;9657;45.940;12.840;2023-04-16T13:01:26;16.10;60.80
19050;DHT22;9657;45.940;12.840;2023-04-16T13:03:54;16.10;60.80
19050;DHT22;9657;45.940;12.840;2023-04-16T13:06:21;16.10;60.90
19050;DHT22;9657;45.940;12.840;2023-04-16T13:08:48;16.10;60.80
19050;DHT22;9657;45.940;12.840;2023-04-16T13:11:16;16.10;60.90
19050;DHT22;9657;45.940;12.840;2023-04-16T13:13:45;16.10;60.80
19050;DHT22;9657;45.940;12.840;2023-04-16T13:16:12;16.10;60.80
19050;DHT22;9657;45.940;12.840;2023-04-16T13:18:39;16.10;60.80
19050;DHT22;9657;45.940;12.840;2023-04-16T13:21:07;16.10;60.80
19050;DHT22;9657;45.940;12.840;2023-04-16T13:23:34;16.10;60.80
19050;DHT22;9657;45.940;12.840;2023-04-16T13:26:01;16.10;60.90
19050;DHT22;9657;45.940;12.840;2023-04-16T13:28:30;16.10;60.90
19050;DHT22;9657;45.940;12.840;2023-04-16T13:30:57;16.10;60.90
19050;DHT22;9657;45.940;12.840;2023-04-16T13:33:24;16.10;60.80
19050;DHT22;9657;45.940;12.840;2023-04-16T13:35:52;16.10;60.80
19050;DHT22;9657;45.940;12.840;2023-04-16T13:38:19;16.10;60.90
19050;DHT22;9657;45.940;12.840;2023-04-16T13:40:46;16.10;60.80
19050;DHT22;9657;45.940;12.840;2023-04-16T13:43:13;16.10;60.90
19050;DHT22;9657;45.940;12.840;2023-04-16T13:45:44;16.10;60.80
19050;DHT22;9657;45.940;12.840;2023-04-16T13:48:11;16.10;60.90
19050;DHT22;9657;45.940;12.840;2023-04-16T13:50:39;16.10;60.90
19050;DHT22;9657;45.940;12.840;2023-04-16T13:53:06;16.10;60.90
19050;DHT22;9657;45.940;12.840;2023-04-16T13:55:33;16.10;60.90
19050;DHT22;9657;45.940;12.840;2023-04-16T13:58:00;16.10;60.90
19050;DHT22;9657;45.940;12.840;2023-04-16T14:00:27;16.10;60.90
19050;DHT22;9657;45.940;12.840;2023-04-16T14:02:55;16.10;60.90
19050;DHT22;9657;45.940;12.840;2023-04-16T14:05:22;16.10;60.90
19050;DHT22;9657;45.940;12.840;2023-04-16T14:07:49;16.10;60.90
19050;DHT22;9657;45.940;12.840;2023-04-16T14:10:16;16.10;60.90
19050;DHT22;9657;45.940;12.840;2023-04-16T14:12:44;16.10;60.90
19050;DHT22;9657;45.940;12.840;2023-04-16T14:15:11;16.10;60.80
19050;DHT22;9657;45.940;12.840;2023-04-16T14:17:40;16.10;60.90
19050;DHT22;9657;45.940;12.840;2023-04-16T14:20:11;16.10;60.90
19050;DHT22;9657;45.940;12.840;2023-04-16T14:22:38;16.10;60.90
19050;DHT22;9657;45.940;12.840;2023-04-16T14:25:07;16.20;61.00
19050;DHT22;9657;45.940;12.840;2023-04-16T14:27:34;16.10;60.90
19050;DHT22;9657;45.940;12.840;2023-04-16T14:30:01;16.10;60.90
19050;DHT22;9657;45.940;12.840;2023-04-16T14:32:28;16.10;60.80
19050;DHT22;9657;45.940;12.840;2023-04-16T14:34:55;16.10;60.80
19050;DHT22;9657;45.940;12.840;2023-04-16T14:37:24;16.20;61.00
19050;DHT22;9657;45.940;12.840;2023-04-16T14:39:52;16.20;61.00
19050;DHT22;9657;45.940;12.840;2023-04-16T14:42:19;16.20;61.00
19050;DHT22;9657;45.940;12.840;2023-04-16T14:44:47;16.20;61.30
19050;DHT22;9657;45.940;12.840;2023-04-16T14:47:14;16.20;61.00
19050;DHT22;9657;45.940;12.840;2023-04-16T14:49:41;16.20;61.00
19050;DHT22;9657;45.940;12.840;2023-04-16T14:52:08;16.20;61.00
19050;DHT22;9657;45.940;12.840;2023-04-16T14:54:36;16.20;61.00
19050;DHT22;9657;45.940;12.840;2023-04-16T14:57:03;16.20;61.00
19050;DHT22;9657;45.940;12.840;2023-04-16T14:59:30;16.20;61.00
19050;DHT22;9657;45.940;12.840;2023-04-16T15:01:58;16.20;61.00
19050;DHT22;9657;45.940;12.840;2023-04-16T15:04:25;16.20;61.00
19050;DHT22;9657;45.940;12.840;2023-04-16T15:06:52;16.20;61.00
19050;DHT22;9657;45.940;12.840;2023-04-16T15:09:24;16.20;61.00
19050;DHT22;9657;45.940;12.840;2023-04-16T15:11:53;16.20;61.00
19050;DHT22;9657;45.940;12.840;2023-04-16T15:14:20;16.20;61.00
19050;DHT22;9657;45.940;12.840;2023-04-16T15:16:47;16.20;61.00
19050;DHT22;9657;45.940;12.840;2023-04-16T15:19:14;16.20;61.00
19050;DHT22;9657;45.940;12.840;2023-04-16T15:21:42;16.20;61.00
19050;DHT22;9657;45.940;12.840;2023-04-16T15:24:09;16.20;61.10
19050;DHT22;9657;45.940;12.840;2023-04-16T15:26:36;16.20;61.10
19050;DHT22;9657;45.940;12.840;2023-04-16T15:29:05;16.20;61.00
19050;DHT22;9657;45.940;12.840;2023-04-16T15:31:32;16.20;60.80
19050;DHT22;9657;45.940;12.840;2023-04-16T15:33:59;16.20;60.60
19050;DHT22;9657;45.940;12.840;2023-04-16T15:36:26;16.20;60.40